International Virtual Aviation Organisation

Eastern Europe and Northern Asia MCD

 
USCC 110230Z 18004MPS CAVOK 03/03 Q1035 R09/000060 NOSIG RMK QFE755
QNH:(hPa/inHg/mmHg)1035 / 30.56 / 776
QFE:(hPa/inHg/mmHg)1007 / 29.72 / 755
Temperature3
Dew Point3
Visibility> 10000
WeatherCAVOK
Cloud Cover
Transition Altitude1500 ft.
Transition LevelFL30
SQUAWK